Saturday, February 24, 2018, 10:17 PM EST
Back to Local

KMTN, Baltimore / Martin

Location: Middle River, MD, United States Lat: 39.333
Local Time: 10:17 PM EST ( 3:17 GMT) Lon: -76.417
Time Zone: US/Eastern Elev: 22 ft

Show me the last for .
Show Coded

Time T Td Feel RH Dir Speed Gust Alt SLP Vis Weather Sky Remarks
2018-02-24 21:45 50 48 - 93 - Calm - 30.18 - 10 OVC033 None
2018-02-24 20:55 50 48 48 93 20° 6 - 30.17 - 10 OVC035 None
2018-02-24 19:50 52 48 - 87 30° 6 - 30.18 - 10 OVC035 None
2018-02-24 18:45 52 48 - 87 360° 6 - 30.17 - 10 OVC035 None
2018-02-24 17:45 52 50 - 93 20° 6 - 30.15 - 10 OVC033 None
2018-02-24 16:55 50 50 - 100 - Calm - 30.17 - 7 -DZ OVC031 None
2018-02-24 15:45 52 50 - 93 - Calm - 30.16 - 7 -RA OVC029 None
2018-02-24 14:45 52 52 - 100 50° 5 - 30.15 - 10 OVC029 None
2018-02-24 13:45 52 52 - 100 350° 3 - 30.15 - 7 SCT008 OVC027 None
2018-02-24 13:10 52 52 - 100 350° 5 - 30.16 - 5 BR OVC027 None
2018-02-24 12:45 50 50 - 100 - Calm - 30.16 - 4 DZ BKN009 BKN017 OVC025 None
2018-02-24 11:45 50 50 - 100 - Calm - 30.18 - 6 BR BKN007 OVC025 None
2018-02-24 10:45 48 48 - 100 - Calm - 30.21 - 5 BR OVC005 None
2018-02-24 09:45 48 48 46 100 150° 5 - 30.20 - 2 BR BKN003 BKN200 None
2018-02-24 08:45 46 46 - 100 - Calm - 30.22 - 1 BR OVC003 None
2018-02-24 07:45 46 46 - 100 - Calm - 30.20 - 0 FG OVC003 None
2018-02-24 06:45 46 46 - 100 - Calm - 30.19 - 0 FG OVC003 None
2018-02-24 05:45 46 46 - 100 - Calm - 30.20 - 0 FG OVC003 None
2018-02-24 05:30 45 45 - 100 - Calm - 30.20 - 0 FG OVC003 None
2018-02-24 05:18 45 45 - 100 - Calm - 30.20 - 0 FG OVC003 None
2018-02-24 04:57 45 45 - 100 - Calm - 30.18 - 0 FG OVC003 None
2018-02-24 04:36 45 45 - 100 - Calm - 30.18 - 0 FG OVC003 None
2018-02-24 04:18 45 45 - 100 - Calm - 30.18 - 0 FG OVC003 None
2018-02-24 03:57 45 45 - 100 - Calm - 30.20 - 0 FG OVC003 None
2018-02-24 03:36 45 45 - 100 - Calm - 30.20 - 1 BR OVC003 None
2018-02-24 03:18 45 45 - 100 - Calm - 30.20 - 1 BR OVC003 None
2018-02-24 02:57 45 45 - 100 - Calm - 30.20 - 1 BR OVC003 None
2018-02-24 02:36 45 45 42 100 150° 5 - 30.22 - 2 BR OVC003 None
2018-02-24 02:18 45 45 43 100 150° 3 - 30.22 - 1 BR OVC003 None
2018-02-24 01:57 45 45 - 100 - Calm - 30.24 - 1 BR OVC003 None
2018-02-24 01:36 45 45 - 100 - Calm - 30.25 - 1 BR OVC003 None
2018-02-24 01:18 45 45 43 100 150° 3 - 30.24 - 1 BR OVC003 None
2018-02-24 00:57 45 45 - 100 - Calm - 30.25 - 1 BR OVC003 None
2018-02-24 00:36 45 45 43 100 150° 3 - 30.25 - 2 BR OVC003 None
2018-02-24 00:18 45 45 42 100 150° 5 - 30.25 - 1 BR OVC003 None
2018-02-23 23:57 45 45 43 100 160° 3 - 30.26 - 1 BR OVC003 None
2018-02-23 23:36 45 45 43 100 140° 3 - 30.26 - 1 BR OVC003 None
2018-02-23 23:18 45 45 43 100 140° 3 - 30.27 - 1 BR OVC003 None
2018-02-23 22:57 45 45 43 100 150° 3 - 30.28 - 1 BR OVC003 None
2018-02-23 22:36 45 45 - 100 - Calm - 30.29 - 1 BR OVC003 None
2018-02-23 22:18 45 45 - 100 - Calm - 30.30 - 1 BR OVC003 None

Support USWX by starting your Amazon purchase here.